Time;durP1;ratioP1;P1;durP2;ratioP2;P2;SDS_P1;SDS_P2;PMS_P1;PMS_P2;Temp;Humidity;BMP_temperature;BMP_pressure;BME280_temperature;BME280_humidity;BME280_pressure;Samples;Min_cycle;Max_cycle;Signal;HPM_P1;HPM_P2
2022/04/11 00:01:16;;;;;;;5.80;3.83;;;;;;;5.93;81.10;94398.75;5036496;28;20224;-86
2022/04/11 00:03:42;;;;;;;4.70;3.90;;;;;;;5.48;79.61;94347.88;5037093;28;20602;-84
2022/04/11 00:06:07;;;;;;;4.00;3.30;;;;;;;5.57;79.88;94359.78;5048826;28;20561;-86
2022/04/11 00:08:33;;;;;;;6.30;4.33;;;;;;;5.76;80.75;94384.38;5030349;28;20186;-85
2022/04/11 00:10:58;;;;;;;5.30;3.10;;;;;;;5.99;80.54;94424.09;5047127;28;20290;-87
2022/04/11 00:13:24;;;;;;;5.00;3.60;;;;;;;5.83;79.91;94396.47;5035074;28;20609;-86
2022/04/11 00:15:50;;;;;;;6.60;3.80;;;;;;;5.52;79.53;94344.69;5034819;28;20229;-86
2022/04/11 00:18:15;;;;;;;6.90;3.90;;;;;;;5.84;79.58;94381.59;5035248;28;20174;-86
2022/04/11 00:20:41;;;;;;;4.60;3.27;;;;;;;5.72;79.07;94360.44;5053626;28;20165;-86
2022/04/11 00:23:06;;;;;;;5.67;3.70;;;;;;;5.74;78.89;94352.44;5053225;28;20183;-88
2022/04/11 00:25:33;;;;;;;6.70;3.60;;;;;;;6.00;77.61;94413.47;5053270;28;20171;-86
2022/04/11 00:27:58;;;;;;;7.50;3.53;;;;;;;6.09;77.42;94421.13;5053217;28;20175;-87
2022/04/11 00:30:23;;;;;;;7.60;3.60;;;;;;;5.77;76.87;94372.94;5035305;28;20248;-86
2022/04/11 00:32:49;;;;;;;5.70;3.30;;;;;;;6.18;76.88;94444.31;5035226;28;20607;-85
2022/04/11 00:35:14;;;;;;;7.83;3.27;;;;;;;5.88;76.66;94401.94;5051039;28;20211;-84
2022/04/11 00:37:40;;;;;;;9.20;3.40;;;;;;;6.00;77.01;94426.53;5051954;28;20229;-85
2022/04/11 00:40:09;;;;;;;5.73;3.40;;;;;;;6.27;76.44;94461.44;5051462;28;20206;-85
2022/04/11 00:42:35;;;;;;;5.00;2.77;;;;;;;6.03;76.27;94425.34;5051324;28;20203;-85
2022/04/11 00:45:01;;;;;;;7.57;3.00;;;;;;;6.30;74.84;94476.75;5035143;28;20202;-85
2022/04/11 00:47:27;;;;;;;3.63;3.27;;;;;;;6.26;74.76;94478.13;5052186;28;20182;-86
2022/04/11 00:50:00;;;;;;;5.90;3.10;;;;;;;6.26;74.84;94478.13;5033975;28;20244;-86
2022/04/11 00:52:29;;;;;;;6.50;4.73;;;;;;;5.88;75.11;94430.66;5051764;28;20190;-87
2022/04/11 00:54:55;;;;;;;4.67;3.13;;;;;;;5.57;74.25;94419.81;5029888;28;20183;-87
2022/04/11 00:57:23;;;;;;;5.60;3.60;;;;;;;5.87;74.98;94481.28;5034209;28;20285;-87
2022/04/11 00:59:49;;;;;;;4.87;2.90;;;;;;;5.85;75.88;94483.28;5034191;28;20179;-87
2022/04/11 01:02:14;;;;;;;5.80;3.30;;;;;;;5.42;75.42;94424.31;5034253;28;20207;-87
2022/04/11 01:04:41;;;;;;;3.57;2.67;;;;;;;5.10;76.12;94374.28;5052378;28;20217;-87
2022/04/11 01:07:07;;;;;;;7.03;3.63;;;;;;;5.52;74.85;94443.06;5034861;28;20163;-87
2022/04/11 01:09:33;;;;;;;4.80;3.23;;;;;;;5.89;76.23;94504.59;5034634;28;20228;-87
2022/04/11 01:11:58;;;;;;;4.50;3.00;;;;;;;5.62;75.85;94449.56;5034370;28;20231;-88
2022/04/11 01:14:24;;;;;;;4.13;2.73;;;;;;;5.68;75.50;94445.41;5034677;28;20623;-86
2022/04/11 01:16:51;;;;;;;5.90;3.10;;;;;;;6.22;74.62;94518.72;5052562;28;20199;-88
2022/04/11 01:19:17;;;;;;;5.73;3.23;;;;;;;5.93;74.53;94483.16;5052343;28;20647;-86
2022/04/11 01:21:46;;;;;;;4.73;2.50;;;;;;;6.01;73.41;94508.31;5034764;28;20659;-88
2022/04/11 01:24:12;;;;;;;3.93;2.60;;;;;;;6.14;74.08;94538.97;5034943;28;20183;-86
2022/04/11 01:26:37;;;;;;;5.30;3.47;;;;;;;5.82;74.36;94473.19;5034566;28;20186;-87
2022/04/11 01:29:06;;;;;;;3.10;2.43;;;;;;;5.92;73.62;94512.06;5034510;28;20175;-86
2022/04/11 01:31:32;;;;;;;3.03;2.43;;;;;;;5.80;73.61;94477.81;5034271;28;20193;-87
2022/04/11 01:33:57;;;;;;;3.97;2.50;;;;;;;5.86;73.84;94489.31;5033941;28;20190;-87
2022/04/11 01:36:23;;;;;;;5.10;2.97;;;;;;;5.92;73.11;94486.75;5051575;28;21071;-87
2022/04/11 01:38:48;;;;;;;4.57;2.67;;;;;;;6.28;73.30;94544.06;5050826;28;20191;-87
2022/04/11 01:41:14;;;;;;;3.90;2.73;;;;;;;6.12;72.59;94517.44;5033770;28;20198;-88
2022/04/11 01:43:39;;;;;;;3.27;2.40;;;;;;;5.98;72.56;94495.63;5033663;28;20264;-87
2022/04/11 01:46:05;;;;;;;5.17;3.00;;;;;;;5.88;73.41;94488.13;5034157;28;20702;-86
2022/04/11 01:48:30;;;;;;;3.13;2.47;;;;;;;5.89;73.58;94494.16;5051800;28;20198;-86
2022/04/11 01:50:55;;;;;;;4.30;2.37;;;;;;;6.16;72.77;94542.16;5033867;28;20202;-87
2022/04/11 01:53:21;;;;;;;3.93;2.37;;;;;;;5.81;73.29;94486.44;5034035;28;20648;-86
2022/04/11 01:55:47;;;;;;;4.07;2.63;;;;;;;6.29;72.73;94569.22;5052298;28;20226;-85
2022/04/11 01:58:13;;;;;;;3.93;2.40;;;;;;;5.86;72.17;94499.75;5034627;28;20186;-86
2022/04/11 02:00:39;;;;;;;2.90;2.10;;;;;;;6.34;72.22;94576.47;5052004;28;20163;-85
2022/04/11 02:03:07;;;;;;;2.77;2.27;;;;;;;6.38;72.30;94586.38;5051215;28;20179;-86
2022/04/11 02:05:33;;;;;;;2.70;2.20;;;;;;;6.38;72.37;94590.78;5051402;28;20651;-86
2022/04/11 02:07:58;;;;;;;8.07;3.60;;;;;;;6.15;71.92;94556.22;5051256;28;20628;-86
2022/04/11 02:10:24;;;;;;;5.23;2.57;;;;;;;6.30;71.61;94591.75;5051586;28;20179;-86
2022/04/11 02:12:51;;;;;;;3.03;2.70;;;;;;;6.32;71.54;94602.78;5033677;28;20218;-87
2022/04/11 02:15:17;;;;;;;5.10;2.80;;;;;;;6.35;71.98;94594.56;5031055;28;20205;-86
2022/04/11 02:17:42;;;;;;;3.50;1.97;;;;;;;6.34;71.86;94608.63;5046819;28;20195;-86
2022/04/11 02:20:08;;;;;;;3.73;2.40;;;;;;;5.88;71.95;94523.91;5033333;28;21047;-86
2022/04/11 02:22:55;;;;;;;3.50;2.40;;;;;;;6.37;72.22;94616.13;5051081;28;20668;-85
2022/04/11 02:25:23;;;;;;;4.00;3.17;;;;;;;6.12;71.70;94577.53;5051586;28;20637;-86
2022/04/11 02:27:48;;;;;;;4.37;2.87;;;;;;;6.24;71.55;94589.88;5033585;28;20230;-86
2022/04/11 02:30:15;;;;;;;4.47;2.80;;;;;;;6.14;71.79;94607.69;5033205;28;20218;-86
2022/04/11 02:32:41;;;;;;;6.30;2.70;;;;;;;6.10;72.34;94611.69;5051350;28;20556;-86
2022/04/11 02:35:08;;;;;;;5.03;2.67;;;;;;;6.34;72.06;94636.59;5052006;28;20179;-87
2022/04/11 02:37:33;;;;;;;4.37;2.70;;;;;;;5.74;72.05;94537.81;5033486;28;20206;-86
2022/04/11 02:39:59;;;;;;;3.27;2.23;;;;;;;6.24;72.23;94626.44;5051611;28;20695;-86
2022/04/11 02:42:26;;;;;;;6.73;2.93;;;;;;;6.27;72.55;94626.09;5033743;28;20640;-86
2022/04/11 02:44:52;;;;;;;3.30;2.90;;;;;;;6.32;72.72;94643.78;5051421;28;20229;-86
2022/04/11 02:47:18;;;;;;;4.13;2.40;;;;;;;6.23;72.45;94634.47;5051743;28;20239;-86
2022/04/11 02:49:43;;;;;;;3.13;2.60;;;;;;;5.94;71.56;94588.44;5051606;28;20305;-86
2022/04/11 02:52:09;;;;;;;5.67;3.13;;;;;;;6.21;71.96;94658.22;5032385;28;20266;-86
2022/04/11 02:54:36;;;;;;;4.77;3.10;;;;;;;5.76;72.43;94598.50;5031593;28;20179;-85
2022/04/11 02:57:01;;;;;;;3.37;3.00;;;;;;;5.54;73.08;94569.78;5050648;28;20300;-84
2022/04/11 02:59:27;;;;;;;5.13;3.50;;;;;;;6.13;73.57;94655.75;5050290;28;20647;-83
2022/04/11 03:01:52;;;;;;;5.20;3.63;;;;;;;5.82;73.19;94622.06;5051960;28;20258;-84
2022/04/11 03:04:18;;;;;;;4.57;3.00;;;;;;;5.67;73.73;94618.72;5052917;28;20653;-86
2022/04/11 03:06:44;;;;;;;5.17;3.63;;;;;;;5.60;74.42;94591.75;5055162;28;20175;-85
2022/04/11 03:09:09;;;;;;;4.30;3.33;;;;;;;5.87;74.55;94617.09;5037219;28;20167;-85
2022/04/11 03:11:35;;;;;;;4.87;3.23;;;;;;;5.57;74.17;94602.53;5036993;28;20581;-85
2022/04/11 03:14:01;;;;;;;5.50;3.70;;;;;;;5.67;74.55;94598.63;5054626;28;20703;-85
2022/04/11 03:16:26;;;;;;;8.53;5.07;;;;;;;6.00;74.23;94650.38;5055021;28;20221;-87
2022/04/11 03:18:51;;;;;;;7.80;4.07;;;;;;;6.15;74.20;94665.97;5036820;28;20171;-84
2022/04/11 03:21:17;;;;;;;4.53;3.20;;;;;;;6.02;73.25;94656.22;5054562;28;20179;-84
2022/04/11 03:23:42;;;;;;;7.47;3.77;;;;;;;6.19;73.70;94691.56;5054898;28;20254;-84
2022/04/11 03:26:08;;;;;;;9.30;4.50;;;;;;;6.18;74.07;94692.56;5054501;28;20228;-83
2022/04/11 03:28:33;;;;;;;5.17;4.07;;;;;;;5.96;74.46;94644.75;5053562;28;20670;-84
2022/04/11 03:31:02;;;;;;;5.83;3.83;;;;;;;6.23;75.04;94692.78;5053440;28;20242;-84
2022/04/11 03:33:28;;;;;;;8.57;4.43;;;;;;;6.00;76.06;94647.78;5053522;28;20222;-86
2022/04/11 03:35:53;;;;;;;6.93;4.70;;;;;;;5.65;76.60;94600.63;5035751;28;20282;-86
2022/04/11 03:38:19;;;;;;;9.77;6.03;;;;;;;6.22;76.63;94713.91;5036562;28;20167;-85
2022/04/11 03:40:44;;;;;;;9.07;5.07;;;;;;;6.12;73.28;94714.22;5054482;28;20170;-87
2022/04/11 03:43:10;;;;;;;7.03;4.00;;;;;;;5.79;73.39;94679.09;5036337;28;20186;-84
2022/04/11 03:45:35;;;;;;;7.03;3.77;;;;;;;5.67;74.34;94666.53;5053818;28;20554;-85
2022/04/11 03:48:01;;;;;;;10.80;3.57;;;;;;;6.07;73.56;94711.34;5053388;28;20179;-86
2022/04/11 03:50:26;;;;;;;5.77;3.00;;;;;;;5.71;73.22;94658.31;5050462;28;20942;-85
2022/04/11 03:52:51;;;;;;;7.27;4.00;;;;;;;6.07;72.54;94717.38;5053533;28;20232;-85
2022/04/11 03:55:17;;;;;;;7.57;3.70;;;;;;;5.78;73.02;94667.03;5036182;28;20266;-85
2022/04/11 03:57:42;;;;;;;9.27;4.77;;;;;;;5.76;72.15;94658.56;5036164;28;20195;-85
2022/04/11 04:00:09;;;;;;;8.43;4.63;;;;;;;6.18;72.08;94744.00;5053190;28;20185;-85
2022/04/11 04:02:34;;;;;;;6.60;3.53;;;;;;;5.74;71.35;94673.59;5052947;28;20183;-85
2022/04/11 04:05:00;;;;;;;5.23;3.73;;;;;;;5.71;71.89;94694.88;5034488;28;20182;-85
2022/04/11 04:07:25;;;;;;;14.93;5.40;;;;;;;5.47;72.94;94651.63;5052710;28;20170;-85
2022/04/11 04:09:51;;;;;;;8.23;3.90;;;;;;;5.60;71.08;94680.50;5052779;28;20660;-85
2022/04/11 04:12:20;;;;;;;5.83;3.30;;;;;;;5.92;71.54;94757.59;5052560;28;20230;-85
2022/04/11 04:14:49;;;;;;;4.37;3.40;;;;;;;5.56;71.85;94690.50;5053611;28;20567;-83
2022/04/11 04:17:15;;;;;;;7.17;5.00;;;;;;;5.96;72.38;94761.50;5035580;28;20577;-85
2022/04/11 04:19:41;;;;;;;4.67;3.23;;;;;;;5.51;72.19;94715.53;5035742;28;20175;-85
2022/04/11 04:22:06;;;;;;;6.40;3.37;;;;;;;5.78;71.75;94740.97;5053410;28;20174;-84
2022/04/11 04:24:33;;;;;;;6.47;3.53;;;;;;;5.45;70.91;94675.28;5053700;28;20624;-85
2022/04/11 04:26:58;;;;;;;5.90;3.37;;;;;;;5.64;71.28;94711.25;5053044;28;20198;-84
2022/04/11 04:29:24;;;;;;;5.93;4.00;;;;;;;6.10;70.70;94788.56;5053302;28;20190;-84
2022/04/11 04:31:49;;;;;;;8.03;3.80;;;;;;;6.07;70.20;94792.34;5052388;28;20176;-85
2022/04/11 04:34:15;;;;;;;5.30;3.67;;;;;;;6.16;70.35;94790.41;5052301;28;20569;-86
2022/04/11 04:36:41;;;;;;;5.87;3.63;;;;;;;5.91;70.79;94753.38;5053125;28;20199;-85
2022/04/11 04:39:07;;;;;;;5.90;3.20;;;;;;;6.10;69.81;94786.75;5035466;28;20257;-85
2022/04/11 04:41:33;;;;;;;9.83;3.90;;;;;;;6.22;70.47;94798.34;5053604;28;20203;-85
2022/04/11 04:43:59;;;;;;;8.17;4.47;;;;;;;6.23;71.22;94810.41;5053593;28;20197;-84
2022/04/11 04:46:24;;;;;;;6.20;3.90;;;;;;;5.81;71.19;94740.56;5053551;28;20167;-89
2022/04/11 04:48:50;;;;;;;12.03;4.27;;;;;;;5.59;70.26;94695.34;5053770;28;20268;-87
2022/04/11 04:51:18;;;;;;;9.13;5.17;;;;;;;5.95;69.52;94754.63;5053080;28;20635;-85
2022/04/11 04:53:43;;;;;;;12.17;6.43;;;;;;;5.79;69.27;94737.38;5034169;28;20171;-85
2022/04/11 04:56:09;;;;;;;8.37;5.20;;;;;;;5.86;70.07;94789.66;5053085;28;20198;-86
2022/04/11 04:58:34;;;;;;;7.43;4.10;;;;;;;5.65;70.28;94744.22;5052611;28;20175;-85
2022/04/11 05:01:00;;;;;;;7.07;3.87;;;;;;;5.75;70.14;94764.81;5050487;28;20262;-86
2022/04/11 05:03:26;;;;;;;7.13;4.67;;;;;;;5.73;70.91;94745.91;5051824;28;20187;-86
2022/04/11 05:05:51;;;;;;;6.80;4.23;;;;;;;5.81;69.45;94734.53;5051809;28;20716;-87
2022/04/11 05:08:17;;;;;;;7.50;4.40;;;;;;;5.82;69.82;94750.03;5053396;28;20203;-86
2022/04/11 05:10:42;;;;;;;7.70;4.90;;;;;;;6.45;69.91;94842.59;5037389;28;20175;-86
2022/04/11 05:13:08;;;;;;;10.00;4.83;;;;;;;5.78;67.71;94759.25;5057085;28;20242;-86
2022/04/11 05:15:33;;;;;;;9.20;5.80;;;;;;;5.94;68.81;94776.53;5054084;28;20632;-86
2022/04/11 05:17:59;;;;;;;11.00;6.20;;;;;;;6.26;68.98;94822.28;5035882;28;20232;-86
2022/04/11 05:20:24;;;;;;;9.83;5.30;;;;;;;5.91;68.14;94784.72;5036494;28;20178;-86
2022/04/11 05:22:50;;;;;;;8.47;5.20;;;;;;;6.06;69.15;94809.81;5035643;28;20163;-87
2022/04/11 05:25:15;;;;;;;9.43;5.37;;;;;;;6.25;68.52;94816.25;5033512;28;20561;-87
2022/04/11 05:27:41;;;;;;;8.40;4.67;;;;;;;6.26;68.64;94799.56;5034338;28;20163;-87
2022/04/11 05:30:07;;;;;;;7.57;4.47;;;;;;;6.36;67.74;94818.38;5034083;28;20163;-87
2022/04/11 05:32:33;;;;;;;6.97;3.90;;;;;;;6.21;67.46;94775.81;5034047;28;20167;-87
2022/04/11 05:34:59;;;;;;;8.60;4.10;;;;;;;6.22;67.80;94790.50;5033468;28;20529;-87
2022/04/11 05:37:24;;;;;;;10.17;4.20;;;;;;;6.58;67.67;94853.19;5050309;28;20688;-86
2022/04/11 05:39:50;;;;;;;5.53;3.60;;;;;;;6.42;67.63;94814.22;5050901;28;20175;-84
2022/04/11 05:42:15;;;;;;;7.67;4.07;;;;;;;6.80;66.99;94870.53;5051853;28;20178;-84
2022/04/11 05:44:41;;;;;;;7.70;3.80;;;;;;;6.59;67.20;94814.78;5031602;28;20171;-85
2022/04/11 05:47:06;;;;;;;7.20;4.73;;;;;;;6.67;66.14;94815.44;5033578;28;20175;-88
2022/04/11 05:49:32;;;;;;;8.47;6.03;;;;;;;6.84;65.70;94868.31;5051433;28;20206;-87
2022/04/11 05:51:57;;;;;;;13.27;6.87;;;;;;;6.31;66.31;94794.59;5033536;28;20163;-84
2022/04/11 05:54:23;;;;;;;8.40;5.77;;;;;;;6.53;65.99;94839.88;5050594;28;20175;-83
2022/04/11 05:56:48;;;;;;;8.10;5.43;;;;;;;6.75;65.84;94885.13;5032467;28;20199;-84
2022/04/11 05:59:14;;;;;;;16.30;4.60;;;;;;;6.48;65.49;94863.16;5050304;28;20262;-84
2022/04/11 06:01:42;;;;;;;5.53;4.23;;;;;;;6.56;66.16;94880.53;5050684;28;20171;-83
2022/04/11 06:04:07;;;;;;;7.60;5.10;;;;;;;6.36;67.21;94854.19;5049464;28;20179;-85
2022/04/11 06:06:33;;;;;;;6.67;4.73;;;;;;;6.55;67.01;94877.13;5050427;28;20224;-85
2022/04/11 06:08:58;;;;;;;6.57;4.73;;;;;;;6.37;66.94;94843.53;5050438;28;20190;-85
2022/04/11 06:11:24;;;;;;;7.67;5.30;;;;;;;6.59;68.07;94862.66;5032807;28;20198;-85
2022/04/11 06:13:49;;;;;;;10.97;5.77;;;;;;;6.56;66.73;94889.19;5050295;28;21623;-85
2022/04/11 06:16:15;;;;;;;8.70;5.07;;;;;;;6.42;68.51;94863.88;5050261;28;20679;-84
2022/04/11 06:18:40;;;;;;;10.27;5.10;;;;;;;6.25;67.18;94845.00;5032854;28;20171;-85
2022/04/11 06:21:06;;;;;;;9.00;4.80;;;;;;;6.60;67.86;94905.31;5032737;28;20167;-84
2022/04/11 06:23:31;;;;;;;9.20;4.30;;;;;;;6.40;67.19;94861.44;5049729;28;20194;-84
2022/04/11 06:25:57;;;;;;;9.73;4.93;;;;;;;6.52;68.29;94856.56;5048155;28;20179;-84
2022/04/11 06:28:23;;;;;;;8.77;4.83;;;;;;;6.73;68.27;94879.31;5050735;28;20224;-84
2022/04/11 06:30:48;;;;;;;8.13;4.43;;;;;;;7.04;66.08;94913.81;5050384;28;20174;-84
2022/04/11 06:33:13;;;;;;;11.47;5.13;;;;;;;7.26;67.59;94836.09;5049532;28;20167;-84
2022/04/11 06:35:39;;;;;;;7.40;4.03;;;;;;;7.92;62.87;94839.88;5051046;28;20251;-84
2022/04/11 06:38:04;;;;;;;8.23;4.97;;;;;;;8.08;61.52;94843.16;5050740;28;20543;-88
2022/04/11 06:40:30;;;;;;;6.10;3.90;;;;;;;8.18;61.77;94827.88;5036067;28;20171;-88
2022/04/11 06:42:55;;;;;;;10.50;4.40;;;;;;;8.04;58.79;94853.25;5036661;28;20172;-88
2022/04/11 06:45:21;;;;;;;7.70;4.83;;;;;;;7.60;59.90;94832.66;5035233;28;20232;-83
2022/04/11 06:47:48;;;;;;;7.00;4.10;;;;;;;7.72;59.92;94843.41;5030857;28;20167;-84
2022/04/11 06:50:14;;;;;;;6.30;3.93;;;;;;;8.97;60.34;94923.41;5035696;28;20668;-84
2022/04/11 06:52:41;;;;;;;6.10;3.50;;;;;;;10.07;58.25;94895.66;5054887;28;20171;-82
2022/04/11 06:55:07;;;;;;;6.50;3.87;;;;;;;11.17;56.52;94934.91;5054581;28;20233;-81
2022/04/11 06:57:32;;;;;;;4.57;3.80;;;;;;;12.13;52.85;94878.34;5054061;28;20191;-81
2022/04/11 06:59:58;;;;;;;8.60;3.53;;;;;;;13.44;48.40;94941.94;5053741;28;20186;-81
2022/04/11 07:02:24;;;;;;;6.97;3.93;;;;;;;13.84;47.49;94881.25;5054311;28;20254;-84
2022/04/11 07:04:49;;;;;;;5.97;3.17;;;;;;;14.41;45.88;94910.59;5054632;28;20171;-85
2022/04/11 07:07:15;;;;;;;5.33;3.73;;;;;;;14.23;44.43;94846.13;5055104;28;20166;-84
2022/04/11 07:09:40;;;;;;;4.30;3.20;;;;;;;14.80;42.73;94912.47;5037071;28;20618;-88
2022/04/11 07:12:07;;;;;;;3.70;3.30;;;;;;;14.48;43.25;94900.69;5037214;28;20193;-85
2022/04/11 07:14:33;;;;;;;10.60;5.07;;;;;;;14.54;44.42;94889.94;5053993;28;20283;-83
2022/04/11 07:16:58;;;;;;;6.63;5.27;;;;;;;14.83;43.68;94922.59;5051543;28;20207;-81
2022/04/11 07:19:24;;;;;;;8.97;4.40;;;;;;;15.42;43.70;94947.84;5052651;28;20189;-82
2022/04/11 07:21:49;;;;;;;7.50;4.03;;;;;;;15.23;41.59;94896.03;5053882;28;20179;-84
2022/04/11 07:24:15;;;;;;;6.13;4.03;;;;;;;15.01;41.59;94903.06;5034385;28;20236;-86
2022/04/11 07:26:40;;;;;;;6.77;4.17;;;;;;;15.14;41.82;94933.78;5052485;28;20189;-88
2022/04/11 07:29:06;;;;;;;4.07;2.93;;;;;;;14.54;42.61;94882.00;5053895;28;20175;-88
2022/04/11 07:31:32;;;;;;;7.10;3.70;;;;;;;15.31;42.79;94950.53;5037039;28;20175;-86
2022/04/11 07:33:58;;;;;;;7.60;4.47;;;;;;;15.57;42.36;94934.06;5052616;28;20174;-85
2022/04/11 07:36:23;;;;;;;8.70;3.43;;;;;;;16.07;41.77;94963.31;5053514;28;20282;-90
2022/04/11 07:38:49;;;;;;;11.03;4.00;;;;;;;16.39;40.36;94958.19;5035641;28;20159;-85
2022/04/11 07:41:14;;;;;;;7.50;4.23;;;;;;;16.14;40.77;94913.47;5036207;28;20183;-87
2022/04/11 07:43:40;;;;;;;6.83;4.17;;;;;;;16.19;40.17;94918.06;5034873;28;20629;-85
2022/04/11 07:46:05;;;;;;;8.60;5.17;;;;;;;16.43;39.81;94943.38;5053752;28;20164;-87
2022/04/11 07:48:32;;;;;;;6.50;4.50;;;;;;;16.05;38.09;94956.63;5053701;28;20546;-86
2022/04/11 07:50:58;;;;;;;5.53;3.90;;;;;;;15.61;39.73;94961.75;5054348;28;20212;-84
2022/04/11 07:53:24;;;;;;;1999.90;999.90;;;;;;;15.22;39.96;94973.22;5053455;28;20159;-84
2022/04/11 07:55:52;;;;;;;1999.90;999.90;;;;;;;14.52;41.64;94915.09;5034984;28;20540;-83
2022/04/11 07:58:18;;;;;;;1999.90;999.90;;;;;;;14.39;41.73;94978.91;5052247;28;20197;-82
2022/04/11 08:00:44;;;;;;;1999.90;999.90;;;;;;;13.06;42.90;94916.59;5049026;28;20213;-82
2022/04/11 08:03:10;;;;;;;1999.90;999.90;;;;;;;12.61;45.41;94992.78;5052198;28;20194;-81
2022/04/11 08:05:36;;;;;;;1999.90;999.90;;;;;;;11.90;44.97;94995.06;5050971;28;20179;-81
2022/04/11 08:08:01;;;;;;;1999.90;999.90;;;;;;;11.01;47.40;94926.69;5050776;28;20198;-84
2022/04/11 08:10:27;;;;;;;1999.90;999.90;;;;;;;11.14;48.19;94984.59;5051534;28;20198;-85
2022/04/11 08:12:57;;;;;;;1999.90;999.90;;;;;;;11.34;49.44;94998.44;5051410;28;20555;-85
2022/04/11 08:15:24;;;;;;;1999.90;999.90;;;;;;;11.67;49.07;94990.34;5049868;28;20344;-84
2022/04/11 08:17:49;;;;;;;1999.90;999.90;;;;;;;11.83;48.02;94921.28;5032329;28;20203;-82
2022/04/11 08:20:15;;;;;;;1999.90;999.90;;;;;;;12.31;46.45;94946.97;5050980;28;20182;-83
2022/04/11 08:22:40;;;;;;;1999.90;999.90;;;;;;;12.86;46.31;95005.91;5034828;28;20181;-84
2022/04/11 08:25:07;;;;;;;1999.90;999.90;;;;;;;12.80;45.57;95004.94;5035258;28;20189;-84
2022/04/11 08:27:33;;;;;;;1999.90;999.90;;;;;;;12.64;45.56;95000.25;5051854;28;20551;-84
2022/04/11 08:29:58;;;;;;;1999.90;999.90;;;;;;;12.31;46.31;94946.97;5051038;28;20179;-86
2022/04/11 08:32:24;;;;;;;1999.90;999.90;;;;;;;12.27;47.36;94927.34;5027328;28;20687;-84
2022/04/11 08:34:49;;;;;;;1999.90;999.90;;;;;;;12.58;45.44;94976.56;5048646;28;20699;-85
2022/04/11 08:37:15;;;;;;;1999.90;999.90;;;;;;;12.40;45.86;94985.25;5045533;28;20223;-85
2022/04/11 08:39:40;;;;;;;1999.90;999.90;;;;;;;12.61;47.14;94986.69;5029171;28;20205;-84
2022/04/11 08:42:06;;;;;;;1999.90;999.90;;;;;;;12.53;45.91;94973.78;5051221;28;20179;-85
2022/04/11 08:44:33;;;;;;;1999.90;999.90;;;;;;;12.81;45.83;94971.41;5051716;28;20179;-83
2022/04/11 08:47:04;;;;;;;1999.90;999.90;;;;;;;13.02;47.52;94993.94;5051121;28;20199;-85
2022/04/11 08:49:30;;;;;;;1999.90;999.90;;;;;;;12.96;46.61;94965.75;5051471;28;20179;-84
2022/04/11 08:51:56;;;;;;;1999.90;999.90;;;;;;;13.36;45.90;94997.78;5050616;28;20291;-83
2022/04/11 08:54:22;;;;;;;1999.90;999.90;;;;;;;13.30;45.26;95011.91;5033548;28;20244;-84
2022/04/11 08:56:47;;;;;;;1999.90;999.90;;;;;;;12.67;44.41;94985.81;5031110;28;20218;-83
2022/04/11 08:59:14;;;;;;;1999.90;999.90;;;;;;;12.25;46.04;94988.25;5049961;28;20171;-82
2022/04/11 09:01:40;;;;;;;1999.90;999.90;;;;;;;12.51;47.63;95013.59;5051474;28;20269;-83
2022/04/11 09:04:08;;;;;;;1999.90;999.90;;;;;;;12.74;47.42;95002.38;5050448;28;20171;-84
2022/04/11 09:06:35;;;;;;;1999.90;999.90;;;;;;;12.78;46.95;94977.94;5049471;28;20718;-83
2022/04/11 09:09:02;;;;;;;1999.90;999.90;;;;;;;13.15;47.59;94983.19;5031516;28;20187;-83
2022/04/11 09:11:37;;;;;;;1999.90;999.90;;;;;;;13.57;47.16;95000.75;5033424;28;20219;-83
2022/04/11 09:14:06;;;;;;;1999.90;999.90;;;;;;;13.19;44.97;94953.47;5032385;28;20242;-86
2022/04/11 09:16:52;;;;;;;1999.90;999.90;;;;;;;13.13;43.85;95017.81;5033551;28;20588;-87
2022/04/11 09:19:20;;;;;;;1999.90;999.90;;;;;;;12.24;45.71;94948.88;5034155;28;20171;-84
2022/04/11 09:21:45;;;;;;;1999.90;999.90;;;;;;;12.06;45.10;94983.97;5052442;28;20163;-82
2022/04/11 09:24:16;;;;;;;1999.90;999.90;;;;;;;11.51;46.87;94972.38;5032758;28;20279;-87
2022/04/11 09:26:42;;;;;;;1999.90;999.90;;;;;;;11.38;47.71;94975.94;5031793;28;20167;-86
2022/04/11 09:29:07;;;;;;;1999.90;999.90;;;;;;;11.41;48.38;94972.06;5051900;28;20571;-85
2022/04/11 09:31:33;;;;;;;1999.90;999.90;;;;;;;11.92;46.57;95019.41;5052300;28;20621;-85
2022/04/11 09:34:12;;;;;;;1999.90;999.90;;;;;;;12.05;46.95;95019.28;5052245;28;20174;-84
2022/04/11 09:36:49;;;;;;;1999.90;999.90;;;;;;;11.88;46.79;94994.47;5051456;28;20194;-85
2022/04/11 09:39:19;;;;;;;1999.90;999.90;;;;;;;11.37;45.71;94932.13;5032620;28;20186;-90
2022/04/11 09:41:46;;;;;;;1999.90;999.90;;;;;;;11.29;47.13;94922.66;5051920;28;20179;-85
2022/04/11 09:44:21;;;;;;;1999.90;999.90;;;;;;;12.11;47.12;95013.13;5033009;28;20590;-85
2022/04/11 09:46:47;;;;;;;1999.90;999.90;;;;;;;11.96;47.65;94930.88;5033915;28;20711;-88
2022/04/11 09:49:13;;;;;;;1999.90;999.90;;;;;;;12.40;47.17;94959.69;5034816;28;20205;-92
2022/04/11 09:52:02;;;;;;;1999.90;999.90;;;;;;;12.74;46.45;94987.34;5034350;28;20181;-88
2022/04/11 09:54:28;;;;;;;1999.90;999.90;;;;;;;12.70;46.66;95003.84;5031635;28;20175;-90
2022/04/11 09:56:54;;;;;;;1999.90;999.90;;;;;;;12.82;46.59;95010.81;5034473;28;20183;-92
2022/04/11 09:59:23;;;;;;;1999.90;999.90;;;;;;;12.47;45.11;94981.53;5034126;28;20171;-90
2022/04/11 10:01:51;;;;;;;1999.90;999.90;;;;;;;12.41;46.81;94956.00;5033466;28;20241;-91
2022/04/11 10:04:18;;;;;;;1999.90;999.90;;;;;;;12.55;45.64;94996.28;5053076;28;20182;-90
2022/04/11 10:06:45;;;;;;;1999.90;999.90;;;;;;;12.53;47.68;94995.72;5036232;28;20170;-92
2022/04/11 10:09:12;;;;;;;1999.90;999.90;;;;;;;12.20;45.58;94937.94;5035874;28;20235;-91
2022/04/11 10:11:40;;;;;;;1999.90;999.90;;;;;;;12.32;46.14;94920.38;5040028;28;20742;-89
2022/04/11 10:14:07;;;;;;;1999.90;999.90;;;;;;;12.45;44.71;94961.69;5039238;28;20302;-92
2022/04/11 10:16:33;;;;;;;1999.90;999.90;;;;;;;12.36;45.35;94944.50;5037673;28;20194;-91
2022/04/11 10:19:03;;;;;;;1999.90;999.90;;;;;;;12.43;44.59;95001.50;5037522;28;20168;-92
2022/04/11 10:21:30;;;;;;;1999.90;999.90;;;;;;;11.99;45.24;94978.75;5052469;28;20167;-90
2022/04/11 10:24:06;;;;;;;1999.90;999.90;;;;;;;11.34;45.48;94932.56;5037213;28;20240;-90
2022/04/11 10:26:52;;;;;;;1999.90;999.90;;;;;;;11.46;46.78;94946.69;5054700;28;20512;-90
2022/04/11 10:29:31;;;;;;;1999.90;999.90;;;;;;;11.71;46.50;94971.22;5035669;28;20159;-90
2022/04/11 10:32:18;;;;;;;1999.90;999.90;;;;;;;12.15;46.98;95000.31;5037693;28;20570;-90
2022/04/11 10:34:49;;;;;;;1999.90;999.90;;;;;;;12.26;48.46;94978.50;5037733;28;20167;-91
2022/04/11 10:37:16;;;;;;;1999.90;999.90;;;;;;;12.41;43.88;94992.97;5055203;28;20286;-91
2022/04/11 10:39:44;;;;;;;1999.90;999.90;;;;;;;11.86;45.29;94918.19;5036662;28;20262;-91
2022/04/11 10:42:16;;;;;;;1999.90;999.90;;;;;;;12.04;46.38;94917.41;5033182;28;20178;-91
2022/04/11 10:44:50;;;;;;;1999.90;999.90;;;;;;;12.58;44.13;95005.59;5035976;28;20179;-91
2022/04/11 10:47:15;;;;;;;1999.90;999.90;;;;;;;12.30;44.08;95012.16;5035453;28;20186;-90
2022/04/11 10:49:50;;;;;;;1999.90;999.90;;;;;;;12.21;46.22;95010.00;5035534;28;20183;-91
2022/04/11 10:52:33;;;;;;;1999.90;999.90;;;;;;;12.15;42.30;95008.25;5035841;28;20182;-91
2022/04/11 10:55:07;;;;;;;1999.90;999.90;;;;;;;11.81;44.91;94938.31;5037292;28;20171;-92
2022/04/11 10:57:44;;;;;;;1999.90;999.90;;;;;;;11.98;44.15;94979.78;5034648;28;20657;-91
2022/04/11 11:00:10;;;;;;;1999.90;999.90;;;;;;;12.23;45.09;95008.78;5054913;28;20198;-90
2022/04/11 11:02:53;;;;;;;1999.90;999.90;;;;;;;12.20;44.86;95006.56;5055757;28;20637;-91
2022/04/11 11:05:54;;;;;;;1999.90;999.90;;;;;;;12.02;44.12;95009.19;5054124;28;20186;-90
2022/04/11 11:08:21;;;;;;;1999.90;999.90;;;;;;;12.05;45.40;94999.00;4957587;28;20750;-91
2022/04/11 11:11:10;;;;;;;1999.90;999.90;;;;;;;11.88;45.25;94968.09;5021382;28;20664;-91
2022/04/11 11:13:36;;;;;;;1999.90;999.90;;;;;;;12.34;46.30;95007.28;5053942;28;20189;-91
2022/04/11 11:16:21;;;;;;;1999.90;999.90;;;;;;;12.65;44.69;95008.97;5036019;28;20190;-89
2022/04/11 11:18:50;;;;;;;1999.90;999.90;;;;;;;12.77;44.97;95008.03;5036390;28;20183;-91
2022/04/11 11:21:27;;;;;;;1999.90;999.90;;;;;;;12.78;41.80;95011.50;5054626;28;20175;-90
2022/04/11 11:24:11;;;;;;;1999.90;999.90;;;;;;;12.97;46.28;95010.47;5051965;28;20664;-91